createdAt,value
2022-08-25T00:00:12.480Z,100.00
2022-08-25T00:02:39.300Z,100.00
2022-08-25T00:05:07.329Z,100.00
2022-08-25T00:07:36.421Z,100.00
2022-08-25T00:10:05.208Z,100.00
2022-08-25T00:12:31.945Z,100.00
2022-08-25T00:14:58.888Z,100.00
2022-08-25T00:17:25.773Z,100.00
2022-08-25T00:19:52.372Z,100.00
2022-08-25T00:22:19.193Z,100.00
2022-08-25T00:24:45.798Z,100.00
2022-08-25T00:27:12.653Z,100.00
2022-08-25T00:29:39.689Z,100.00
2022-08-25T00:32:06.653Z,100.00
2022-08-25T00:34:36.868Z,100.00
2022-08-25T00:37:07.278Z,100.00
2022-08-25T00:39:34.155Z,100.00
2022-08-25T00:42:01.461Z,100.00
2022-08-25T00:44:29.910Z,100.00
2022-08-25T00:47:00.029Z,100.00
2022-08-25T00:49:29.417Z,100.00
2022-08-25T00:52:14.898Z,100.00
2022-08-25T00:54:56.536Z,100.00
2022-08-25T00:57:34.814Z,100.00
2022-08-25T01:00:07.325Z,100.00
2022-08-25T01:02:34.282Z,100.00
2022-08-25T01:05:01.060Z,100.00
2022-08-25T01:07:27.757Z,100.00
2022-08-25T01:09:55.672Z,100.00
2022-08-25T01:12:22.761Z,100.00
2022-08-25T01:14:50.944Z,100.00
2022-08-25T01:17:17.984Z,100.00
2022-08-25T01:19:44.696Z,100.00
2022-08-25T01:22:12.026Z,100.00
2022-08-25T01:24:50.803Z,100.00
2022-08-25T01:27:17.528Z,100.00
2022-08-25T01:29:44.274Z,100.00
2022-08-25T01:32:13.279Z,100.00
2022-08-25T01:34:42.609Z,100.00
2022-08-25T01:37:12.051Z,100.00
2022-08-25T01:39:42.036Z,100.00
2022-08-25T01:42:34.572Z,100.00
2022-08-25T01:45:01.391Z,100.00
2022-08-25T01:47:28.167Z,100.00
2022-08-25T01:49:54.779Z,100.00
2022-08-25T01:52:29.779Z,100.00
2022-08-25T01:54:56.564Z,100.00
2022-08-25T01:57:23.583Z,100.00
2022-08-25T01:59:50.540Z,100.00
2022-08-25T02:02:18.448Z,100.00
2022-08-25T02:04:45.514Z,100.00
2022-08-25T02:07:12.247Z,100.00
2022-08-25T02:09:39.331Z,100.00
2022-08-25T02:12:06.521Z,100.00
2022-08-25T02:14:33.264Z,100.00
2022-08-25T02:16:59.935Z,100.00
2022-08-25T02:19:26.840Z,100.00
2022-08-25T02:21:54.006Z,100.00
2022-08-25T02:24:21.055Z,100.00
2022-08-25T02:26:48.396Z,100.00
2022-08-25T02:29:16.829Z,100.00
2022-08-25T02:31:44.291Z,100.00
2022-08-25T02:34:11.544Z,100.00
2022-08-25T02:36:39.072Z,100.00
2022-08-25T02:39:10.092Z,100.00
2022-08-25T02:41:37.237Z,100.00
2022-08-25T02:44:04.945Z,100.00
2022-08-25T02:46:32.678Z,100.00
2022-08-25T02:48:59.412Z,100.00
2022-08-25T02:51:29.943Z,100.00
2022-08-25T02:54:02.003Z,100.00
2022-08-25T02:56:29.912Z,100.00
2022-08-25T02:58:57.011Z,100.00
2022-08-25T03:01:28.631Z,100.00
2022-08-25T03:03:56.470Z,100.00
2022-08-25T03:06:24.176Z,100.00
2022-08-25T03:08:52.147Z,100.00
2022-08-25T03:11:19.149Z,100.00
2022-08-25T03:13:46.519Z,100.00
2022-08-25T03:16:13.204Z,100.00
2022-08-25T03:18:42.306Z,100.00
2022-08-25T03:21:11.631Z,100.00
2022-08-25T03:23:40.197Z,100.00
2022-08-25T03:26:25.474Z,100.00
2022-08-25T03:28:52.639Z,100.00
2022-08-25T03:31:19.397Z,100.00
2022-08-25T03:33:46.571Z,100.00
2022-08-25T03:36:13.513Z,100.00
2022-08-25T03:38:40.780Z,100.00
2022-08-25T03:41:21.398Z,100.00
2022-08-25T03:43:48.998Z,100.00
2022-08-25T03:46:43.723Z,100.00
2022-08-25T03:49:15.634Z,100.00
2022-08-25T03:51:46.948Z,100.00
2022-08-25T03:54:16.063Z,100.00
2022-08-25T03:56:43.140Z,100.00
2022-08-25T03:59:10.258Z,100.00
2022-08-25T04:01:38.517Z,100.00
2022-08-25T04:04:06.384Z,100.00
2022-08-25T04:06:33.589Z,100.00
2022-08-25T04:09:00.364Z,100.00
2022-08-25T04:11:28.483Z,100.00
2022-08-25T04:13:58.092Z,100.00
2022-08-25T04:16:27.335Z,100.00
2022-08-25T04:18:55.330Z,100.00
2022-08-25T04:21:22.721Z,100.00
2022-08-25T04:23:51.780Z,100.00
2022-08-25T04:26:28.180Z,100.00
2022-08-25T04:28:57.583Z,100.00
2022-08-25T04:31:24.942Z,100.00
2022-08-25T04:33:51.655Z,100.00
2022-08-25T04:36:19.729Z,100.00
2022-08-25T04:38:47.733Z,100.00
2022-08-25T04:41:16.715Z,100.00
2022-08-25T04:43:44.784Z,100.00
2022-08-25T04:46:23.154Z,100.00
2022-08-25T04:48:52.143Z,100.00
2022-08-25T04:51:23.388Z,100.00
2022-08-25T04:53:50.196Z,100.00
2022-08-25T04:56:19.777Z,100.00
2022-08-25T04:58:47.157Z,100.00
2022-08-25T05:01:18.554Z,100.00
2022-08-25T05:03:47.139Z,100.00
2022-08-25T05:06:16.250Z,100.00
2022-08-25T05:08:46.025Z,100.00
2022-08-25T05:11:14.813Z,100.00
2022-08-25T05:13:43.524Z,100.00
2022-08-25T05:16:18.010Z,100.00
2022-08-25T05:18:45.145Z,100.00
2022-08-25T05:21:15.380Z,100.00
2022-08-25T05:23:42.724Z,100.00
2022-08-25T05:26:19.617Z,100.00
2022-08-25T05:28:49.366Z,100.00
2022-08-25T05:31:16.675Z,100.00
2022-08-25T05:33:44.284Z,100.00
2022-08-25T05:36:12.730Z,100.00
2022-08-25T05:38:41.002Z,100.00
2022-08-25T05:41:10.896Z,100.00
2022-08-25T05:43:39.876Z,100.00
2022-08-25T05:46:07.496Z,100.00
2022-08-25T05:48:34.543Z,100.00
2022-08-25T05:51:04.152Z,100.00
2022-08-25T05:53:31.447Z,100.00
2022-08-25T05:56:01.915Z,100.00
2022-08-25T05:58:30.428Z,100.00
2022-08-25T06:01:19.394Z,100.00
2022-08-25T06:03:47.617Z,100.00
2022-08-25T06:06:16.012Z,100.00
2022-08-25T06:08:44.432Z,100.00
2022-08-25T06:11:12.602Z,100.00
2022-08-25T06:13:39.896Z,100.00
2022-08-25T06:16:06.863Z,100.00
2022-08-25T06:18:33.672Z,100.00
2022-08-25T06:21:08.344Z,100.00
2022-08-25T06:23:36.596Z,100.00
2022-08-25T06:26:03.516Z,100.00
2022-08-25T06:28:30.149Z,100.00
2022-08-25T06:31:01.700Z,100.00
2022-08-25T06:33:28.528Z,100.00
2022-08-25T06:35:56.799Z,100.00
2022-08-25T06:38:24.022Z,100.00
2022-08-25T06:40:52.375Z,100.00
2022-08-25T06:43:22.895Z,100.00
2022-08-25T06:45:49.547Z,100.00
2022-08-25T06:48:16.383Z,100.00
2022-08-25T06:50:44.518Z,100.00
2022-08-25T06:53:11.579Z,100.00
2022-08-25T06:55:38.377Z,100.00
2022-08-25T06:58:05.722Z,100.00
2022-08-25T07:00:37.172Z,100.00
2022-08-25T07:03:04.954Z,100.00
2022-08-25T07:05:42.872Z,100.00
2022-08-25T07:08:11.884Z,100.00
2022-08-25T07:10:39.045Z,100.00
2022-08-25T07:13:05.731Z,100.00
2022-08-25T07:15:32.553Z,100.00
2022-08-25T07:17:59.246Z,100.00
2022-08-25T07:22:53.009Z,100.00
2022-08-25T07:25:19.688Z,100.00
2022-08-25T07:27:46.318Z,100.00
2022-08-25T07:30:13.495Z,100.00
2022-08-25T07:32:42.251Z,100.00
2022-08-25T07:35:19.200Z,100.00
2022-08-25T07:37:52.073Z,100.00
2022-08-25T07:40:23.383Z,100.00
2022-08-25T07:42:53.420Z,100.00
2022-08-25T07:45:21.993Z,100.00
2022-08-25T07:47:51.617Z,100.00
2022-08-25T07:50:18.897Z,100.00
2022-08-25T07:52:50.888Z,100.00
2022-08-25T07:55:22.810Z,100.00
2022-08-25T07:57:54.034Z,100.00
2022-08-25T08:00:22.828Z,100.00
2022-08-25T08:02:51.519Z,100.00
2022-08-25T08:05:18.216Z,100.00
2022-08-25T08:07:44.891Z,100.00
2022-08-25T08:10:48.132Z,100.00
2022-08-25T08:13:01.743Z,100.00
2022-08-25T08:15:29.950Z,100.00
2022-08-25T08:17:57.827Z,100.00
2022-08-25T08:20:25.548Z,100.00
2022-08-25T08:22:52.460Z,100.00
2022-08-25T08:25:24.257Z,100.00
2022-08-25T08:27:55.003Z,100.00
2022-08-25T08:30:23.785Z,100.00
2022-08-25T08:33:09.176Z,100.00
2022-08-25T08:35:37.392Z,100.00
2022-08-25T08:38:10.301Z,100.00
2022-08-25T08:41:33.825Z,100.00
2022-08-25T08:44:24.871Z,100.00
2022-08-25T08:47:04.001Z,100.00
2022-08-25T08:49:48.330Z,100.00
2022-08-25T08:52:17.375Z,100.00
2022-08-25T08:54:46.501Z,100.00
2022-08-25T08:57:19.044Z,100.00
2022-08-25T08:59:54.772Z,100.00
2022-08-25T09:02:51.733Z,100.00
2022-08-25T09:05:21.153Z,100.00
2022-08-25T09:07:54.693Z,100.00
2022-08-25T09:10:24.271Z,100.00
2022-08-25T09:13:15.479Z,100.00
2022-08-25T09:16:31.548Z,100.00
2022-08-25T09:19:21.415Z,100.00
2022-08-25T09:22:01.576Z,100.00
2022-08-25T09:24:40.927Z,100.00
2022-08-25T09:27:20.956Z,100.00
2022-08-25T09:30:17.097Z,100.00
2022-08-25T09:33:03.842Z,100.00
2022-08-25T09:35:34.599Z,100.00
2022-08-25T09:38:05.009Z,100.00
2022-08-25T09:40:34.937Z,100.00
2022-08-25T09:43:05.649Z,100.00
2022-08-25T09:45:35.116Z,100.00
2022-08-25T09:48:02.647Z,100.00
2022-08-25T09:50:34.748Z,100.00
2022-08-25T09:53:17.036Z,100.00
2022-08-25T09:55:47.494Z,100.00
2022-08-25T09:58:20.147Z,100.00
2022-08-25T10:01:23.494Z,100.00
2022-08-25T10:03:58.071Z,100.00
2022-08-25T10:06:27.867Z,100.00
2022-08-25T10:09:01.874Z,100.00
2022-08-25T10:11:31.601Z,100.00
2022-08-25T10:14:16.688Z,100.00
2022-08-25T10:16:46.856Z,100.00
2022-08-25T10:19:19.983Z,100.00
2022-08-25T10:22:04.560Z,100.00
2022-08-25T10:24:31.580Z,100.00
2022-08-25T10:27:22.496Z,100.00
2022-08-25T10:30:14.231Z,100.00
2022-08-25T10:32:40.840Z,100.00
2022-08-25T10:36:03.124Z,100.00
2022-08-25T10:38:36.653Z,100.00
2022-08-25T10:41:28.073Z,100.00
2022-08-25T10:44:38.316Z,100.00
2022-08-25T10:47:35.807Z,100.00
2022-08-25T10:50:23.589Z,100.00
2022-08-25T10:53:25.599Z,100.00
2022-08-25T10:56:02.676Z,100.00
2022-08-25T10:58:48.743Z,100.00
2022-08-25T11:01:43.577Z,100.00
2022-08-25T11:04:26.288Z,100.00
2022-08-25T11:07:08.058Z,100.00
2022-08-25T11:09:40.415Z,100.00
2022-08-25T11:12:15.288Z,100.00
2022-08-25T11:14:49.491Z,100.00
2022-08-25T11:17:22.313Z,100.00
2022-08-25T11:19:52.805Z,100.00
2022-08-25T11:22:28.425Z,100.00
2022-08-25T11:25:14.472Z,100.00
2022-08-25T11:27:59.485Z,100.00
2022-08-25T11:30:26.739Z,100.00
2022-08-25T11:32:55.213Z,100.00
2022-08-25T11:35:42.443Z,100.00
2022-08-25T11:38:39.884Z,100.00
2022-08-25T11:41:28.403Z,100.00
2022-08-25T11:44:10.687Z,100.00
2022-08-25T11:47:06.855Z,100.00
2022-08-25T11:49:58.112Z,100.00
2022-08-25T11:52:35.002Z,100.00
2022-08-25T11:55:34.523Z,100.00
2022-08-25T11:58:40.780Z,100.00
2022-08-25T12:01:40.167Z,100.00
2022-08-25T12:04:44.501Z,100.00
2022-08-25T12:07:19.435Z,100.00
2022-08-25T12:09:53.794Z,100.00
2022-08-25T12:12:56.105Z,100.00
2022-08-25T12:15:30.079Z,100.00
2022-08-25T12:18:22.883Z,100.00
2022-08-25T12:20:56.959Z,100.00
2022-08-25T12:23:45.525Z,100.00
2022-08-25T12:26:56.326Z,100.00
2022-08-25T12:29:29.081Z,100.00
2022-08-25T12:32:22.399Z,100.00
2022-08-25T12:35:29.522Z,100.00
2022-08-25T12:38:42.523Z,100.00
2022-08-25T12:41:33.695Z,100.00
2022-08-25T12:44:34.911Z,100.00
2022-08-25T12:47:13.635Z,100.00
2022-08-25T12:49:40.660Z,100.00
2022-08-25T12:52:15.887Z,100.00
2022-08-25T12:54:49.113Z,100.00
2022-08-25T12:57:33.048Z,100.00
2022-08-25T13:00:05.757Z,100.00
2022-08-25T13:02:52.144Z,100.00
2022-08-25T13:05:28.039Z,99.39
2022-08-25T13:08:15.488Z,91.12
2022-08-25T13:10:51.124Z,92.24
2022-08-25T13:13:55.245Z,87.09
2022-08-25T13:16:29.397Z,77.47
2022-08-25T13:18:59.047Z,81.44
2022-08-25T13:21:39.671Z,74.87
2022-08-25T13:24:12.635Z,77.40
2022-08-25T13:26:48.076Z,87.66
2022-08-25T13:29:27.919Z,83.50
2022-08-25T13:32:02.569Z,85.34
2022-08-25T13:34:42.534Z,93.32
2022-08-25T13:37:27.713Z,100.00
2022-08-25T13:40:10.983Z,94.97
2022-08-25T13:42:45.127Z,100.00
2022-08-25T13:45:19.263Z,100.00
2022-08-25T13:47:47.892Z,100.00
2022-08-25T13:50:26.869Z,100.00
2022-08-25T13:52:55.681Z,98.75
2022-08-25T13:55:38.273Z,100.00
2022-08-25T13:58:45.640Z,100.00
2022-08-25T14:01:23.452Z,100.00
2022-08-25T14:04:27.222Z,100.00
2022-08-25T14:07:19.527Z,100.00
2022-08-25T14:09:53.980Z,86.51
2022-08-25T14:12:33.172Z,77.10
2022-08-25T14:15:10.752Z,78.11
2022-08-25T14:17:40.954Z,71.15
2022-08-25T14:20:20.424Z,74.22
2022-08-25T14:22:48.387Z,72.73
2022-08-25T14:25:15.119Z,73.76
2022-08-25T14:28:03.487Z,73.84
2022-08-25T14:30:34.827Z,72.92
2022-08-25T14:33:02.937Z,71.14
2022-08-25T14:35:29.992Z,69.73
2022-08-25T14:37:58.478Z,66.28
2022-08-25T14:40:25.128Z,66.10
2022-08-25T14:42:51.925Z,63.67
2022-08-25T14:45:19.355Z,62.71
2022-08-25T14:47:49.885Z,62.37
2022-08-25T14:50:20.097Z,60.83
2022-08-25T14:52:48.286Z,63.40
2022-08-25T14:55:31.178Z,56.01
2022-08-25T14:57:58.435Z,62.65
2022-08-25T15:00:25.814Z,62.60
2022-08-25T15:02:52.974Z,60.94
2022-08-25T15:05:28.297Z,62.60
2022-08-25T15:08:14.358Z,57.24
2022-08-25T15:10:43.479Z,66.21
2022-08-25T15:13:10.660Z,64.24
2022-08-25T15:15:40.221Z,62.60
2022-08-25T15:18:21.073Z,60.77
2022-08-25T15:20:50.042Z,60.28
2022-08-25T15:23:20.479Z,57.64
2022-08-25T15:25:49.077Z,60.20
2022-08-25T15:28:22.347Z,58.64
2022-08-25T15:30:50.328Z,57.95
2022-08-25T15:33:17.587Z,57.73
2022-08-25T15:35:45.118Z,54.63
2022-08-25T15:38:12.576Z,52.68
2022-08-25T15:40:39.736Z,57.13
2022-08-25T15:43:07.046Z,57.93
2022-08-25T15:45:36.093Z,55.75
2022-08-25T15:48:07.409Z,59.71
2022-08-25T15:50:36.032Z,55.53
2022-08-25T15:53:02.791Z,59.90
2022-08-25T15:55:30.349Z,59.52
2022-08-25T15:58:00.328Z,57.69
2022-08-25T16:00:26.981Z,61.73
2022-08-25T16:02:58.406Z,59.26
2022-08-25T16:05:27.016Z,57.73
2022-08-25T16:07:53.789Z,55.06
2022-08-25T16:10:21.030Z,57.37
2022-08-25T16:12:48.644Z,62.99
2022-08-25T16:15:16.007Z,61.85
2022-08-25T16:17:45.962Z,58.03
2022-08-25T16:20:17.112Z,60.61
2022-08-25T16:22:45.047Z,58.26
2022-08-25T16:25:11.899Z,58.09
2022-08-25T16:27:39.291Z,60.91
2022-08-25T16:30:08.661Z,58.79
2022-08-25T16:32:35.825Z,56.87
2022-08-25T16:35:03.483Z,61.87
2022-08-25T16:37:30.382Z,61.41
2022-08-25T16:39:57.395Z,71.32
2022-08-25T16:42:24.614Z,82.65
2022-08-25T16:44:54.081Z,100.00
2022-08-25T16:47:25.017Z,100.00
2022-08-25T16:49:53.559Z,100.00
2022-08-25T16:52:38.988Z,100.00
2022-08-25T16:55:15.091Z,100.00
2022-08-25T16:57:46.063Z,100.00
2022-08-25T17:00:17.624Z,100.00
2022-08-25T17:02:44.461Z,100.00
2022-08-25T17:05:12.401Z,100.00
2022-08-25T17:07:39.462Z,100.00
2022-08-25T17:10:07.563Z,100.00
2022-08-25T17:12:40.528Z,100.00
2022-08-25T17:15:07.605Z,100.00
2022-08-25T17:17:36.301Z,100.00
2022-08-25T17:20:04.832Z,100.00
2022-08-25T17:22:31.997Z,100.00
2022-08-25T17:25:00.814Z,100.00
2022-08-25T17:27:28.244Z,100.00
2022-08-25T17:29:55.906Z,100.00
2022-08-25T17:32:30.506Z,100.00
2022-08-25T17:34:57.873Z,100.00
2022-08-25T17:37:24.923Z,100.00
2022-08-25T17:40:02.440Z,100.00
2022-08-25T17:42:30.379Z,100.00
2022-08-25T17:44:59.159Z,100.00
2022-08-25T17:47:27.415Z,100.00
2022-08-25T17:49:54.335Z,100.00
2022-08-25T17:52:25.533Z,100.00
2022-08-25T17:54:52.897Z,100.00
2022-08-25T17:57:19.827Z,100.00
2022-08-25T17:59:48.011Z,100.00
2022-08-25T18:02:14.704Z,100.00
2022-08-25T18:04:42.683Z,100.00
2022-08-25T18:07:09.982Z,100.00
2022-08-25T18:09:36.686Z,100.00
2022-08-25T18:12:03.509Z,100.00
2022-08-25T18:14:30.193Z,100.00
2022-08-25T18:16:57.017Z,100.00
2022-08-25T18:19:23.645Z,100.00
2022-08-25T18:21:50.285Z,100.00
2022-08-25T18:24:19.434Z,100.00
2022-08-25T18:26:46.916Z,100.00
2022-08-25T18:29:13.981Z,100.00
2022-08-25T18:31:45.771Z,100.00
2022-08-25T18:34:14.037Z,100.00
2022-08-25T18:36:40.924Z,100.00
2022-08-25T18:39:27.132Z,100.00
2022-08-25T18:41:56.217Z,100.00
2022-08-25T18:44:22.903Z,100.00
2022-08-25T18:46:49.688Z,100.00
2022-08-25T18:49:17.238Z,100.00
2022-08-25T18:51:48.534Z,100.00
2022-08-25T18:54:23.224Z,100.00
2022-08-25T18:56:52.296Z,100.00
2022-08-25T18:59:19.510Z,100.00
2022-08-25T19:01:46.564Z,100.00
2022-08-25T19:04:14.959Z,100.00
2022-08-25T19:06:43.750Z,100.00
2022-08-25T19:09:11.006Z,100.00
2022-08-25T19:11:38.582Z,100.00
2022-08-25T19:14:12.069Z,100.00
2022-08-25T19:16:42.330Z,100.00
2022-08-25T19:19:13.157Z,100.00
2022-08-25T19:21:43.727Z,100.00
2022-08-25T19:24:12.892Z,100.00
2022-08-25T19:26:39.870Z,100.00
2022-08-25T19:29:12.416Z,100.00
2022-08-25T19:31:40.771Z,100.00
2022-08-25T19:34:11.745Z,100.00
2022-08-25T19:36:38.962Z,100.00
2022-08-25T19:39:08.334Z,100.00
2022-08-25T19:41:35.375Z,100.00
2022-08-25T19:44:02.925Z,100.00
2022-08-25T19:46:35.782Z,100.00
2022-08-25T19:49:16.020Z,100.00
2022-08-25T19:51:50.457Z,100.00
2022-08-25T19:54:21.815Z,100.00
2022-08-25T19:56:54.706Z,100.00
2022-08-25T19:59:25.220Z,100.00
2022-08-25T20:01:52.253Z,100.00
2022-08-25T20:04:18.859Z,100.00
2022-08-25T20:06:48.426Z,100.00
2022-08-25T20:09:36.009Z,100.00
2022-08-25T20:12:03.534Z,100.00
2022-08-25T20:14:33.935Z,100.00
2022-08-25T20:17:01.799Z,100.00
2022-08-25T20:19:31.041Z,100.00
2022-08-25T20:21:58.868Z,100.00
2022-08-25T20:24:44.382Z,100.00
2022-08-25T20:27:11.269Z,100.00
2022-08-25T20:29:38.143Z,100.00
2022-08-25T20:32:05.099Z,100.00
2022-08-25T20:34:32.624Z,100.00
2022-08-25T20:37:00.860Z,100.00
2022-08-25T20:39:27.722Z,100.00
2022-08-25T20:41:54.906Z,100.00
2022-08-25T20:44:23.368Z,100.00
2022-08-25T20:46:51.518Z,100.00
2022-08-25T20:49:20.139Z,100.00
2022-08-25T20:51:47.058Z,100.00
2022-08-25T20:54:17.205Z,100.00
2022-08-25T20:56:44.081Z,100.00
2022-08-25T20:59:11.762Z,100.00
2022-08-25T21:01:39.784Z,100.00
2022-08-25T21:04:09.706Z,100.00
2022-08-25T21:06:41.909Z,100.00
2022-08-25T21:09:15.907Z,100.00
2022-08-25T21:11:45.080Z,100.00
2022-08-25T21:14:12.669Z,100.00
2022-08-25T21:16:41.105Z,100.00
2022-08-25T21:19:08.871Z,100.00
2022-08-25T21:21:38.546Z,100.00
2022-08-25T21:24:10.061Z,100.00
2022-08-25T21:26:48.913Z,100.00
2022-08-25T21:29:16.631Z,100.00
2022-08-25T21:31:43.343Z,100.00
2022-08-25T21:34:11.873Z,100.00
2022-08-25T21:36:39.478Z,100.00
2022-08-25T21:39:06.965Z,100.00
2022-08-25T21:41:35.459Z,100.00
2022-08-25T21:44:03.794Z,100.00
2022-08-25T21:46:33.606Z,100.00
2022-08-25T21:49:06.197Z,100.00
2022-08-25T21:51:40.830Z,100.00
2022-08-25T21:54:11.747Z,100.00
2022-08-25T21:56:49.595Z,100.00
2022-08-25T21:59:19.081Z,100.00
2022-08-25T22:01:45.906Z,100.00
2022-08-25T22:04:14.433Z,100.00
2022-08-25T22:06:42.048Z,100.00
2022-08-25T22:09:12.700Z,100.00
2022-08-25T22:11:42.119Z,100.00
2022-08-25T22:14:11.003Z,100.00
2022-08-25T22:16:38.883Z,100.00
2022-08-25T22:19:08.367Z,100.00
2022-08-25T22:21:35.459Z,100.00
2022-08-25T22:24:03.274Z,100.00
2022-08-25T22:26:32.548Z,100.00
2022-08-25T22:29:00.613Z,100.00
2022-08-25T22:31:27.660Z,100.00
2022-08-25T22:33:56.766Z,100.00
2022-08-25T22:36:31.201Z,100.00
2022-08-25T22:38:58.871Z,100.00
2022-08-25T22:41:27.360Z,100.00
2022-08-25T22:43:56.576Z,100.00
2022-08-25T22:46:27.903Z,100.00
2022-08-25T22:48:55.987Z,100.00
2022-08-25T22:51:25.618Z,100.00
2022-08-25T22:53:52.785Z,100.00
2022-08-25T22:56:31.866Z,100.00
2022-08-25T22:59:03.349Z,100.00
2022-08-25T23:01:34.520Z,100.00
2022-08-25T23:04:02.945Z,100.00
2022-08-25T23:06:30.465Z,100.00
2022-08-25T23:08:57.222Z,100.00
2022-08-25T23:11:24.909Z,100.00
2022-08-25T23:13:55.264Z,100.00
2022-08-25T23:16:22.176Z,100.00
2022-08-25T23:18:49.007Z,100.00
2022-08-25T23:21:38.147Z,100.00
2022-08-25T23:24:12.003Z,100.00
2022-08-25T23:26:42.433Z,100.00
2022-08-25T23:29:18.329Z,100.00
2022-08-25T23:31:47.782Z,100.00
2022-08-25T23:34:16.001Z,100.00
2022-08-25T23:36:43.805Z,100.00
2022-08-25T23:39:10.871Z,100.00
2022-08-25T23:41:37.575Z,100.00
2022-08-25T23:44:05.699Z,100.00
2022-08-25T23:46:34.836Z,100.00
2022-08-25T23:49:04.138Z,100.00
2022-08-25T23:51:33.714Z,100.00
2022-08-25T23:54:05.919Z,100.00
2022-08-25T23:56:34.334Z,100.00
2022-08-25T23:59:03.477Z,100.00
